Time;durP1;ratioP1;P1;durP2;ratioP2;P2;SDS_P1;SDS_P2;PMS_P1;PMS_P2;Temp;Humidity;BMP_temperature;BMP_pressure;BME280_temperature;BME280_humidity;BME280_pressure;Samples;Min_cycle;Max_cycle;Signal;HPM_P1;HPM_P2
2024/01/08 00:02:18;;;;;;;8.48;6.43;;;;;;;-3.33;100.00;103046.91;5014055;28;20532;-74
2024/01/08 00:04:43;;;;;;;9.38;6.75;;;;;;;-3.30;100.00;103057.94;5014676;28;20026;-75
2024/01/08 00:07:08;;;;;;;8.63;6.95;;;;;;;-3.43;100.00;103034.81;5014991;28;20026;-75
2024/01/08 00:09:33;;;;;;;8.32;6.63;;;;;;;-3.27;100.00;103054.66;5014781;28;20064;-75
2024/01/08 00:11:59;;;;;;;8.13;6.72;;;;;;;-3.40;100.00;103040.81;5014707;28;20454;-75
2024/01/08 00:14:24;;;;;;;7.68;6.75;;;;;;;-3.26;100.00;103053.84;5014889;28;20117;-75
2024/01/08 00:16:49;;;;;;;8.52;6.70;;;;;;;-3.31;100.00;103056.25;5014457;28;20113;-75
2024/01/08 00:19:15;;;;;;;9.82;7.10;;;;;;;-3.33;100.00;103052.81;5014644;28;20022;-75
2024/01/08 00:21:41;;;;;;;8.90;7.22;;;;;;;-3.32;100.00;103052.00;5014583;28;20036;-75
2024/01/08 00:24:07;;;;;;;9.18;6.80;;;;;;;-3.29;100.00;103053.75;5014654;28;20125;-75
2024/01/08 00:26:32;;;;;;;9.00;7.72;;;;;;;-3.28;100.00;103061.38;5014377;28;20101;-75
2024/01/08 00:28:58;;;;;;;8.82;6.80;;;;;;;-3.48;100.00;103024.56;5014412;28;20048;-75
2024/01/08 00:31:24;;;;;;;8.57;7.30;;;;;;;-3.25;100.00;103071.56;4996359;28;20033;-75
2024/01/08 00:33:49;;;;;;;8.48;6.80;;;;;;;-3.30;100.00;103062.16;5014204;28;20148;-75
2024/01/08 00:36:15;;;;;;;8.55;7.10;;;;;;;-3.54;100.00;103027.78;4996136;28;20048;-76
2024/01/08 00:38:40;;;;;;;9.20;7.78;;;;;;;-3.28;100.00;103063.91;5014372;28;20089;-73
2024/01/08 00:41:06;;;;;;;9.10;7.85;;;;;;;-3.27;100.00;103069.81;5014084;28;20109;-75
2024/01/08 00:43:31;;;;;;;9.00;7.80;;;;;;;-3.34;100.00;103050.22;5014050;28;20466;-74
2024/01/08 00:45:56;;;;;;;18.92;7.90;;;;;;;-3.28;100.00;103055.47;5013809;28;20065;-75
2024/01/08 00:48:22;;;;;;;9.20;8.10;;;;;;;-3.23;100.00;103064.06;5013901;28;20022;-75
2024/01/08 00:50:48;;;;;;;10.70;8.98;;;;;;;-3.26;100.00;103048.78;5014055;28;20029;-75
2024/01/08 00:53:13;;;;;;;10.40;8.50;;;;;;;-3.27;100.00;103049.59;4996014;28;20038;-76
2024/01/08 00:55:38;;;;;;;10.85;8.30;;;;;;;-3.34;100.00;103035.94;5014037;28;20029;-75
2024/01/08 00:58:04;;;;;;;9.77;8.48;;;;;;;-3.27;100.00;103050.47;5013745;28;20393;-75
2024/01/08 01:00:31;;;;;;;10.60;8.65;;;;;;;-3.20;100.00;103067.53;5013877;28;20065;-75
2024/01/08 01:02:56;;;;;;;10.88;9.52;;;;;;;-3.21;100.00;103070.88;5013797;28;20040;-75
2024/01/08 01:05:21;;;;;;;10.57;9.48;;;;;;;-3.20;100.00;103059.09;5013894;28;20480;-75
2024/01/08 01:07:46;;;;;;;9.88;8.55;;;;;;;-3.28;100.00;103058.84;5013817;28;20033;-75
2024/01/08 01:10:12;;;;;;;11.38;9.65;;;;;;;-3.35;100.00;103049.38;5013683;28;20030;-75
2024/01/08 01:12:37;;;;;;;11.35;9.75;;;;;;;-3.36;100.00;103044.28;5012748;28;20087;-75
2024/01/08 01:15:03;;;;;;;10.50;9.38;;;;;;;-3.46;100.00;103033.03;5013333;28;20072;-75
2024/01/08 01:17:28;;;;;;;11.60;10.40;;;;;;;-3.34;100.00;103060.31;5013574;28;20037;-75
2024/01/08 01:19:53;;;;;;;10.73;9.63;;;;;;;-3.33;100.00;103070.50;5013423;28;20029;-75
2024/01/08 01:22:19;;;;;;;11.35;9.68;;;;;;;-3.34;100.00;103076.38;5013375;28;20050;-75
2024/01/08 01:24:44;;;;;;;12.27;9.75;;;;;;;-3.30;100.00;103072.25;5013329;28;20533;-75
2024/01/08 01:27:09;;;;;;;10.27;9.02;;;;;;;-3.31;100.00;103066.34;5013419;28;20026;-75
2024/01/08 01:29:35;;;;;;;11.52;9.38;;;;;;;-3.38;100.00;103061.91;5013204;28;20026;-75
2024/01/08 01:32:01;;;;;;;10.63;8.95;;;;;;;-3.40;100.00;103068.59;5013221;28;20113;-75
2024/01/08 01:34:26;;;;;;;9.93;8.93;;;;;;;-3.50;100.00;103066.59;5013019;28;20053;-75
2024/01/08 01:36:52;;;;;;;12.40;9.48;;;;;;;-3.60;100.00;103065.44;5013398;28;20033;-74
2024/01/08 01:39:17;;;;;;;11.52;9.60;;;;;;;-3.79;100.00;103053.06;5013269;28;20022;-75
2024/01/08 01:41:42;;;;;;;11.50;9.52;;;;;;;-3.85;100.00;103037.72;5013145;28;20487;-75
2024/01/08 01:44:08;;;;;;;11.68;10.02;;;;;;;-3.76;100.00;103070.81;5013049;28;20025;-75
2024/01/08 01:46:53;;;;;;;10.73;9.57;;;;;;;-3.88;100.00;103058.66;5013073;28;20100;-75
2024/01/08 01:49:20;;;;;;;11.30;9.93;;;;;;;-3.88;100.00;103066.25;5012952;28;20026;-75
2024/01/08 01:51:47;;;;;;;11.02;9.43;;;;;;;-3.92;100.00;103071.16;5012762;28;20042;-75
2024/01/08 01:54:15;;;;;;;10.95;9.68;;;;;;;-3.92;100.00;103074.53;5012956;28;20032;-75
2024/01/08 01:56:42;;;;;;;11.18;9.98;;;;;;;-3.98;100.00;103081.88;5011303;28;20041;-75
2024/01/08 01:59:08;;;;;;;10.57;9.43;;;;;;;-4.01;100.00;103080.94;5012740;28;20030;-75
2024/01/08 02:01:35;;;;;;;11.40;10.07;;;;;;;-3.99;100.00;103080.19;5012476;28;20500;-77
2024/01/08 02:04:01;;;;;;;11.45;9.70;;;;;;;-4.01;100.00;103083.47;4995092;28;20072;-76
2024/01/08 02:06:27;;;;;;;11.35;10.02;;;;;;;-4.01;100.00;103093.56;5012749;28;20061;-76
2024/01/08 02:08:54;;;;;;;10.52;9.43;;;;;;;-4.04;100.00;103095.16;5012794;28;20487;-80
2024/01/08 02:11:19;;;;;;;12.13;10.10;;;;;;;-4.12;100.00;103083.97;5012560;28;20386;-75
2024/01/08 02:13:45;;;;;;;10.52;8.90;;;;;;;-3.99;100.00;103095.31;5012640;28;20149;-75
2024/01/08 02:16:10;;;;;;;9.80;8.80;;;;;;;-4.06;100.00;103084.16;5012776;28;20075;-76
2024/01/08 02:18:36;;;;;;;10.30;8.50;;;;;;;-4.36;100.00;103038.56;5012683;28;20034;-76
2024/01/08 02:21:01;;;;;;;9.65;8.40;;;;;;;-4.30;100.00;103060.63;5012400;28;20068;-77
2024/01/08 02:23:26;;;;;;;9.90;8.82;;;;;;;-4.24;100.00;103075.97;5012575;28;20045;-76
2024/01/08 02:25:52;;;;;;;10.60;9.40;;;;;;;-4.18;100.00;103090.47;5019048;28;20107;-77
2024/01/08 02:28:17;;;;;;;9.70;8.70;;;;;;;-4.26;100.00;103091.84;5019096;28;20034;-77
2024/01/08 02:30:43;;;;;;;10.02;9.00;;;;;;;-4.30;100.00;103093.44;5019077;28;20029;-76
2024/01/08 02:33:08;;;;;;;10.18;8.77;;;;;;;-4.26;100.00;103107.00;5018852;28;20080;-77
2024/01/08 02:35:34;;;;;;;9.82;8.07;;;;;;;-4.26;100.00;103089.34;5012226;28;20038;-77
2024/01/08 02:37:59;;;;;;;10.00;8.93;;;;;;;-4.34;100.00;103087.41;4999254;28;20081;-78
2024/01/08 02:40:25;;;;;;;11.38;8.82;;;;;;;-4.38;100.00;103094.81;4999415;28;20041;-77
2024/01/08 02:42:51;;;;;;;11.23;9.10;;;;;;;-4.43;100.00;103097.16;4999394;28;20089;-77
2024/01/08 02:45:16;;;;;;;11.05;9.18;;;;;;;-4.47;100.00;103094.50;4999203;28;20427;-76
2024/01/08 02:47:41;;;;;;;10.57;9.43;;;;;;;-4.49;100.00;103099.50;4999647;28;20637;-77
2024/01/08 02:50:07;;;;;;;12.25;8.88;;;;;;;-4.50;100.00;103097.78;4999233;28;20446;-78
2024/01/08 02:52:33;;;;;;;10.32;8.63;;;;;;;-4.54;100.00;103088.38;4981868;28;20022;-77
2024/01/08 02:54:59;;;;;;;11.25;8.70;;;;;;;-4.50;100.00;103090.22;4999226;28;20053;-77
2024/01/08 02:57:28;;;;;;;10.63;8.65;;;;;;;-4.48;100.00;103103.72;4999349;28;20031;-77
2024/01/08 02:59:54;;;;;;;10.00;8.82;;;;;;;-4.63;100.00;103085.53;4999063;28;20031;-77
2024/01/08 03:02:19;;;;;;;10.77;8.55;;;;;;;-4.55;100.00;103105.97;4981657;28;20454;-77
2024/01/08 03:04:44;;;;;;;10.45;8.55;;;;;;;-4.72;100.00;103086.06;4999116;28;20029;-77
2024/01/08 03:07:17;;;;;;;10.98;8.70;;;;;;;-4.58;100.00;103109.25;4999075;28;20038;-77
2024/01/08 03:09:44;;;;;;;11.10;8.85;;;;;;;-4.60;100.00;103108.34;4999361;28;20022;-76
2024/01/08 03:12:09;;;;;;;11.15;8.80;;;;;;;-4.69;100.00;103092.88;4999069;28;20026;-77
2024/01/08 03:14:35;;;;;;;11.30;8.68;;;;;;;-4.66;100.00;103092.97;4998938;28;20034;-76
2024/01/08 03:17:00;;;;;;;10.10;8.32;;;;;;;-4.62;100.00;103095.69;4999069;28;20107;-77
2024/01/08 03:19:25;;;;;;;9.98;8.35;;;;;;;-4.62;100.00;103088.13;4999050;28;20383;-77
2024/01/08 03:21:50;;;;;;;10.90;8.13;;;;;;;-4.58;100.00;103098.31;4998742;28;20030;-77
2024/01/08 03:24:16;;;;;;;10.70;8.55;;;;;;;-4.59;100.00;103102.50;4998963;28;20027;-77
2024/01/08 03:26:41;;;;;;;12.15;8.95;;;;;;;-4.84;100.00;103054.50;4999028;28;20038;-76
2024/01/08 03:29:06;;;;;;;11.75;8.93;;;;;;;-4.70;100.00;103079.41;4998774;28;20026;-77
2024/01/08 03:31:32;;;;;;;10.65;8.52;;;;;;;-4.64;100.00;103091.38;4998764;28;20040;-76
2024/01/08 03:33:57;;;;;;;11.30;8.73;;;;;;;-4.57;100.00;103105.06;4998634;28;20050;-76
2024/01/08 03:36:22;;;;;;;10.25;8.15;;;;;;;-4.54;100.00;103111.06;4995797;28;20474;-77
2024/01/08 03:38:48;;;;;;;11.25;9.00;;;;;;;-4.63;100.00;103088.03;4995870;28;20049;-77
2024/01/08 03:41:13;;;;;;;11.25;8.50;;;;;;;-4.58;100.00;103094.13;4995834;28;20069;-77
2024/01/08 03:43:38;;;;;;;11.15;8.63;;;;;;;-4.45;100.00;103096.25;4977958;28;20155;-78
2024/01/08 03:46:04;;;;;;;10.90;9.07;;;;;;;-4.43;100.00;103102.22;4995650;28;20037;-77
2024/01/08 03:48:29;;;;;;;11.85;8.90;;;;;;;-4.30;100.00;103111.09;4995495;28;20049;-77
2024/01/08 03:50:55;;;;;;;9.88;7.93;;;;;;;-4.57;100.00;103069.75;4995418;28;20054;-77
2024/01/08 03:53:20;;;;;;;11.77;8.93;;;;;;;-4.23;100.00;103107.94;4995575;28;20054;-78
2024/01/08 03:55:46;;;;;;;11.18;8.68;;;;;;;-4.25;100.00;103103.66;4995522;28;20077;-77
2024/01/08 03:58:12;;;;;;;12.10;8.60;;;;;;;-4.19;100.00;103117.34;4995655;28;20030;-77
2024/01/08 04:00:38;;;;;;;11.52;8.43;;;;;;;-4.15;100.00;103113.25;4995415;28;20038;-79
2024/01/08 04:03:03;;;;;;;10.00;8.07;;;;;;;-4.14;100.00;103120.03;4995187;28;20030;-77
2024/01/08 04:05:29;;;;;;;10.98;8.50;;;;;;;-4.19;100.00;103098.84;4995394;28;20029;-78
2024/01/08 04:07:54;;;;;;;10.40;8.20;;;;;;;-4.12;100.00;103108.34;4995636;28;20490;-80
2024/01/08 04:10:19;;;;;;;11.45;7.93;;;;;;;-4.23;100.00;103092.81;4995428;28;20109;-78
2024/01/08 04:12:45;;;;;;;12.23;8.38;;;;;;;-4.08;100.00;103116.06;4995483;28;20026;-78
2024/01/08 04:15:10;;;;;;;10.25;7.90;;;;;;;-4.05;100.00;103110.25;4995237;28;20030;-79
2024/01/08 04:17:36;;;;;;;9.88;7.68;;;;;;;-4.05;100.00;103117.81;4995141;28;20027;-77
2024/01/08 04:20:01;;;;;;;10.82;7.90;;;;;;;-4.17;100.00;103084.59;4995142;28;20450;-77
2024/01/08 04:22:27;;;;;;;10.23;8.15;;;;;;;-3.98;100.00;103114.69;4995077;28;20534;-77
2024/01/08 04:24:52;;;;;;;11.73;7.93;;;;;;;-4.07;100.00;103090.00;4995021;28;20106;-77
2024/01/08 04:27:17;;;;;;;11.95;8.20;;;;;;;-3.97;100.00;103116.41;4995072;28;20026;-77
2024/01/08 04:29:42;;;;;;;10.63;8.05;;;;;;;-4.01;100.00;103107.03;4995035;28;20026;-77
2024/01/08 04:32:08;;;;;;;11.18;8.48;;;;;;;-3.94;100.00;103108.94;4995085;28;20101;-77
2024/01/08 04:34:33;;;;;;;9.75;7.65;;;;;;;-3.94;100.00;103110.59;4994313;28;20062;-77
2024/01/08 04:36:58;;;;;;;9.75;7.85;;;;;;;-3.91;100.00;103120.81;4994700;28;20034;-77
2024/01/08 04:39:24;;;;;;;11.13;7.70;;;;;;;-4.11;100.00;103075.59;4977705;28;20084;-78
2024/01/08 04:41:49;;;;;;;10.35;7.65;;;;;;;-3.88;100.00;103113.34;4995017;28;20513;-78
2024/01/08 04:44:15;;;;;;;10.30;7.78;;;;;;;-3.85;100.00;103113.44;4994623;28;20027;-76
2024/01/08 04:46:44;;;;;;;10.18;7.97;;;;;;;-3.86;100.00;103120.16;4994477;28;20031;-76
2024/01/08 04:49:09;;;;;;;9.55;7.68;;;;;;;-3.99;100.00;103090.28;4994467;28;20157;-76
2024/01/08 04:51:34;;;;;;;10.85;7.75;;;;;;;-3.89;100.00;103102.38;4994704;28;20121;-77
2024/01/08 04:54:00;;;;;;;11.57;8.13;;;;;;;-3.85;100.00;103106.72;4994654;28;20150;-78
2024/01/08 04:56:27;;;;;;;10.27;7.45;;;;;;;-3.84;100.00;103113.47;4994733;28;20065;-78
2024/01/08 04:58:53;;;;;;;10.80;7.72;;;;;;;-3.89;100.00;103104.06;4994281;28;20030;-77
2024/01/08 05:01:18;;;;;;;10.73;7.70;;;;;;;-3.83;100.00;103120.28;4994252;28;20041;-80
2024/01/08 05:03:44;;;;;;;11.20;7.60;;;;;;;-3.94;100.00;103085.38;4992427;28;20038;-77
2024/01/08 05:06:13;;;;;;;10.40;7.38;;;;;;;-3.91;100.00;103101.50;4994116;28;20027;-77
2024/01/08 05:08:39;;;;;;;11.35;7.57;;;;;;;-3.97;100.00;103086.13;4994235;28;20038;-81
2024/01/08 05:11:05;;;;;;;13.23;8.10;;;;;;;-3.79;100.00;103111.13;4994144;28;20531;-77
2024/01/08 05:13:31;;;;;;;10.57;7.78;;;;;;;-4.04;100.00;103069.91;4993935;28;20406;-80
2024/01/08 05:15:57;;;;;;;12.88;9.00;;;;;;;-3.88;100.00;103095.66;4994196;28;20026;-77
2024/01/08 05:18:22;;;;;;;13.25;8.60;;;;;;;-3.78;100.00;103108.63;4994166;28;20491;-76
2024/01/08 05:20:47;;;;;;;13.00;8.75;;;;;;;-4.15;100.00;103046.00;4993888;28;20030;-77
2024/01/08 05:23:13;;;;;;;12.77;9.30;;;;;;;-3.78;100.00;103106.13;4994000;28;20031;-77
2024/01/08 05:25:38;;;;;;;13.35;9.00;;;;;;;-3.80;100.00;103100.16;4994077;28;20026;-77
2024/01/08 05:28:05;;;;;;;12.63;8.95;;;;;;;-3.90;100.00;103085.53;4994125;28;20041;-78
2024/01/08 05:30:30;;;;;;;10.95;9.00;;;;;;;-3.74;100.00;103114.63;4994005;28;20092;-78
2024/01/08 05:32:56;;;;;;;12.55;9.45;;;;;;;-3.90;100.00;103087.19;4993961;28;20031;-80
2024/01/08 05:35:21;;;;;;;12.15;9.02;;;;;;;-3.73;100.00;103108.81;4993422;28;20054;-79
2024/01/08 05:37:46;;;;;;;12.27;9.52;;;;;;;-3.79;100.00;103090.94;4993675;28;20537;-78
2024/01/08 05:40:12;;;;;;;12.65;9.48;;;;;;;-3.76;100.00;103099.44;4993570;28;20030;-82
2024/01/08 05:42:39;;;;;;;11.95;9.63;;;;;;;-3.82;100.00;103091.69;4993889;28;20035;-81
2024/01/08 05:45:07;;;;;;;12.82;8.88;;;;;;;-3.71;100.00;103102.13;4993820;28;20376;-76
2024/01/08 05:47:34;;;;;;;12.05;9.10;;;;;;;-3.69;100.00;103100.50;4993551;28;20026;-79
2024/01/08 05:50:00;;;;;;;15.10;10.15;;;;;;;-3.80;100.00;103079.97;4993364;28;20026;-77
2024/01/08 05:52:26;;;;;;;12.23;9.38;;;;;;;-3.73;100.00;103087.75;4993130;28;20066;-76
2024/01/08 05:54:51;;;;;;;13.25;10.57;;;;;;;-3.65;100.00;103098.94;4993262;28;20037;-76
2024/01/08 05:57:16;;;;;;;12.82;9.95;;;;;;;-3.62;100.00;103109.16;4993568;28;20034;-76
2024/01/08 05:59:41;;;;;;;14.68;10.35;;;;;;;-3.77;100.00;103069.09;4992993;28;20471;-77
2024/01/08 06:02:07;;;;;;;14.50;10.68;;;;;;;-3.61;100.00;103101.63;4993275;28;20042;-76
2024/01/08 06:04:32;;;;;;;14.45;11.43;;;;;;;-3.59;100.00;103100.00;4993073;28;20027;-76
2024/01/08 06:06:58;;;;;;;15.48;11.18;;;;;;;-3.66;100.00;103084.59;4992967;28;20035;-76
2024/01/08 06:09:23;;;;;;;13.75;10.52;;;;;;;-3.67;100.00;103077.84;4993040;28;20076;-76
2024/01/08 06:11:48;;;;;;;13.88;10.93;;;;;;;-3.69;100.00;103071.88;5007621;28;20079;-78
2024/01/08 06:14:14;;;;;;;13.25;10.85;;;;;;;-3.56;100.00;103096.69;4993302;28;20026;-77
2024/01/08 06:16:39;;;;;;;14.38;11.20;;;;;;;-3.69;100.00;103075.25;4993120;28;20049;-77
2024/01/08 06:19:04;;;;;;;14.40;10.70;;;;;;;-3.53;100.00;103105.25;5007401;28;20039;-78
2024/01/08 06:21:30;;;;;;;14.57;10.80;;;;;;;-3.52;100.00;103098.53;4992716;28;20061;-77
2024/01/08 06:23:55;;;;;;;16.17;11.50;;;;;;;-3.50;100.00;103104.47;4992683;28;20066;-78
2024/01/08 06:26:21;;;;;;;13.95;11.38;;;;;;;-3.51;100.00;103088.47;4992999;28;20105;-78
2024/01/08 06:28:46;;;;;;;15.07;11.88;;;;;;;-3.46;100.00;103097.03;4993065;28;20054;-78
2024/01/08 06:31:14;;;;;;;15.30;12.00;;;;;;;-3.57;100.00;103073.13;4992877;28;20359;-77
2024/01/08 06:33:39;;;;;;;15.68;11.57;;;;;;;-3.44;100.00;103093.69;4992715;28;20042;-77
2024/01/08 06:36:05;;;;;;;14.45;11.55;;;;;;;-3.41;100.00;103096.34;4992846;28;20057;-77
2024/01/08 06:38:30;;;;;;;15.15;11.48;;;;;;;-3.40;100.00;103093.00;4992821;28;20485;-76
2024/01/08 06:40:55;;;;;;;15.43;11.68;;;;;;;-3.38;100.00;103094.75;4992896;28;20030;-78
2024/01/08 06:43:21;;;;;;;13.95;11.18;;;;;;;-3.38;100.00;103084.66;4992968;28;20097;-78
2024/01/08 06:45:47;;;;;;;15.98;11.73;;;;;;;-3.50;100.00;103061.53;4992991;28;20050;-78
2024/01/08 06:48:12;;;;;;;16.35;11.57;;;;;;;-3.36;100.00;103092.28;4992927;28;20514;-77
2024/01/08 06:50:38;;;;;;;14.52;10.80;;;;;;;-3.40;100.00;103087.94;4992853;28;20134;-77
2024/01/08 06:53:03;;;;;;;14.45;10.88;;;;;;;-3.41;100.00;103071.06;4992707;28;20023;-77
2024/01/08 06:55:29;;;;;;;15.93;11.73;;;;;;;-3.30;100.00;103085.75;4993101;28;20093;-78
2024/01/08 06:57:54;;;;;;;15.60;11.85;;;;;;;-3.47;100.00;103057.44;4992899;28;20014;-79
2024/01/08 07:00:20;;;;;;;16.08;11.75;;;;;;;-3.27;100.00;103087.50;4992804;28;20026;-77
2024/01/08 07:02:46;;;;;;;16.65;11.65;;;;;;;-3.25;100.00;103089.25;4992744;28;20478;-74
2024/01/08 07:05:11;;;;;;;17.13;11.70;;;;;;;-3.38;100.00;103059.38;4992659;28;20022;-78
2024/01/08 07:07:37;;;;;;;14.82;11.77;;;;;;;-3.21;100.00;103092.75;4991125;28;20030;-79
2024/01/08 07:10:04;;;;;;;14.63;12.00;;;;;;;-3.27;100.00;103077.38;4992425;28;20026;-77
2024/01/08 07:12:29;;;;;;;16.13;12.35;;;;;;;-3.20;100.00;103091.94;4995583;28;20018;-77
2024/01/08 07:14:54;;;;;;;16.65;12.30;;;;;;;-3.18;100.00;103097.88;4996417;28;20387;-77
2024/01/08 07:17:21;;;;;;;16.38;11.80;;;;;;;-3.20;100.00;103102.03;4996314;28;20065;-81
2024/01/08 07:19:46;;;;;;;15.65;12.10;;;;;;;-3.21;100.00;103106.25;4996249;28;20057;-79
2024/01/08 07:22:11;;;;;;;13.82;11.40;;;;;;;-3.18;100.00;103098.75;4996243;28;20474;-81
2024/01/08 07:24:37;;;;;;;13.75;11.30;;;;;;;-3.14;100.00;103106.44;4996034;28;20029;-80
2024/01/08 07:27:02;;;;;;;14.18;11.75;;;;;;;-3.10;100.00;103105.69;4996117;28;20029;-82
2024/01/08 07:29:28;;;;;;;15.50;11.90;;;;;;;-3.28;100.00;103089.16;4996375;28;20073;-80
2024/01/08 07:31:53;;;;;;;14.13;11.48;;;;;;;-3.16;100.00;103106.38;4996041;28;20026;-79
2024/01/08 07:34:19;;;;;;;15.07;10.98;;;;;;;-3.08;100.00;103114.19;4995825;28;20058;-82
2024/01/08 07:36:44;;;;;;;15.77;11.18;;;;;;;-3.04;100.00;103121.91;4995882;28;20517;-83
2024/01/08 07:39:14;;;;;;;13.50;10.82;;;;;;;-3.04;100.00;103119.38;4995869;28;20088;-81
2024/01/08 07:41:40;;;;;;;14.77;11.75;;;;;;;-3.02;100.00;103124.50;4995709;28;20400;-82
2024/01/08 07:44:06;;;;;;;14.98;11.45;;;;;;;-2.99;100.00;103124.56;4995789;28;20042;-79
2024/01/08 07:46:32;;;;;;;15.25;11.57;;;;;;;-2.99;100.00;103135.53;5016139;28;20045;-81
2024/01/08 07:48:58;;;;;;;14.23;11.02;;;;;;;-2.96;100.00;103134.75;5015276;28;20096;-77
2024/01/08 07:51:24;;;;;;;14.45;11.32;;;;;;;-2.93;100.00;103137.41;5015200;28;20120;-77
2024/01/08 07:53:51;;;;;;;15.98;11.40;;;;;;;-3.08;100.00;103115.03;5014894;28;20068;-76
2024/01/08 07:56:17;;;;;;;16.58;11.48;;;;;;;-3.11;100.00;103106.50;5014936;28;20482;-80
2024/01/08 07:58:42;;;;;;;14.10;10.98;;;;;;;-2.94;100.00;103131.50;5013902;28;20025;-80
2024/01/08 08:01:08;;;;;;;12.35;9.63;;;;;;;-2.90;100.00;103137.47;5015134;28;20393;-81
2024/01/08 08:03:34;;;;;;;16.38;10.88;;;;;;;-2.88;100.00;103131.66;5015162;28;20501;-83
2024/01/08 08:05:59;;;;;;;13.43;10.50;;;;;;;-3.04;100.00;103100.84;5015007;28;20044;-78
2024/01/08 08:08:24;;;;;;;12.77;10.32;;;;;;;-3.08;100.00;103088.91;5014953;28;20041;-78
2024/01/08 08:10:50;;;;;;;14.82;10.75;;;;;;;-2.83;100.00;103136.84;5014636;28;20032;-77
2024/01/08 08:13:16;;;;;;;13.60;10.98;;;;;;;-2.80;100.00;103136.09;5015020;28;20152;-79
2024/01/08 08:15:41;;;;;;;13.95;10.50;;;;;;;-2.80;100.00;103139.47;5014690;28;20466;-78
2024/01/08 08:18:07;;;;;;;14.23;10.35;;;;;;;-2.80;100.00;103136.09;5015105;28;20132;-76
2024/01/08 08:20:32;;;;;;;14.05;10.60;;;;;;;-2.77;100.00;103136.16;5013428;28;20022;-76
2024/01/08 08:22:59;;;;;;;12.77;9.32;;;;;;;-2.96;100.00;103102.75;5014125;28;20492;-80
2024/01/08 08:25:25;;;;;;;13.50;9.75;;;;;;;-2.74;100.00;103147.25;4997065;28;20478;-76
2024/01/08 08:27:50;;;;;;;13.68;10.20;;;;;;;-2.71;100.00;103152.38;5014438;28;20068;-77
2024/01/08 08:30:19;;;;;;;11.73;9.98;;;;;;;-2.75;100.00;103130.34;5014448;28;20034;-77
2024/01/08 08:32:44;;;;;;;14.68;11.70;;;;;;;-2.82;100.00;103118.34;5014674;28;20022;-77
2024/01/08 08:35:10;;;;;;;12.15;9.57;;;;;;;-2.76;100.00;103127.75;5014478;28;20449;-76
2024/01/08 08:37:36;;;;;;;13.43;9.95;;;;;;;-2.74;100.00;103132.06;5014432;28;20030;-76
2024/01/08 08:40:02;;;;;;;13.55;9.75;;;;;;;-2.60;100.00;103158.59;5014069;28;20038;-77
2024/01/08 08:42:27;;;;;;;13.27;9.82;;;;;;;-2.58;100.00;103151.06;5014141;28;20367;-76
2024/01/08 08:44:52;;;;;;;13.65;9.82;;;;;;;-2.58;100.00;103155.25;5014412;28;20033;-77
2024/01/08 08:47:18;;;;;;;11.63;9.57;;;;;;;-2.57;100.00;103167.94;5014377;28;20033;-77
2024/01/08 08:49:43;;;;;;;12.52;9.25;;;;;;;-2.60;100.00;103147.63;5014162;28;20033;-76
2024/01/08 08:52:08;;;;;;;12.55;8.93;;;;;;;-2.55;100.00;103150.31;5012529;28;20040;-75
2024/01/08 08:54:34;;;;;;;12.05;8.80;;;;;;;-2.67;100.00;103117.91;5014475;28;20037;-77
2024/01/08 08:57:00;;;;;;;13.38;9.05;;;;;;;-2.47;100.00;103153.88;5014425;28;20029;-77
2024/01/08 08:59:25;;;;;;;10.38;7.85;;;;;;;-2.42;100.00;103159.94;5013834;28;20029;-76
2024/01/08 09:01:51;;;;;;;11.77;8.93;;;;;;;-2.42;100.00;103154.88;5013608;28;20034;-75
2024/01/08 09:04:16;;;;;;;11.32;8.60;;;;;;;-2.40;100.00;103156.63;5013680;28;20022;-78
2024/01/08 09:06:41;;;;;;;11.32;7.88;;;;;;;-2.38;100.00;103162.59;5013563;28;20030;-78
2024/01/08 09:09:09;;;;;;;12.90;9.23;;;;;;;-2.40;100.00;103165.91;5013861;28;20057;-75
2024/01/08 09:11:35;;;;;;;12.18;8.73;;;;;;;-2.53;100.00;103152.06;5013532;28;20051;-76
2024/01/08 09:14:00;;;;;;;13.75;8.90;;;;;;;-2.46;100.00;103165.72;5013731;28;20026;-76
2024/01/08 09:16:26;;;;;;;11.05;8.30;;;;;;;-2.48;100.00;103165.66;5013536;28;20418;-76
2024/01/08 09:18:51;;;;;;;12.38;8.73;;;;;;;-2.52;100.00;103163.03;5013876;28;20037;-77
2024/01/08 09:21:17;;;;;;;11.98;9.27;;;;;;;-2.59;100.00;103151.88;5013335;28;20036;-76
2024/01/08 09:23:43;;;;;;;11.32;8.73;;;;;;;-2.45;100.00;103180.09;5013535;28;20105;-77
2024/01/08 09:26:09;;;;;;;12.15;9.20;;;;;;;-2.52;100.00;103185.78;5013440;28;20099;-77
2024/01/08 09:28:34;;;;;;;12.35;9.68;;;;;;;-2.56;100.00;103183.97;5013087;28;20026;-77
2024/01/08 09:31:02;;;;;;;11.50;9.95;;;;;;;-2.58;100.00;103178.88;5013212;28;20045;-77
2024/01/08 09:33:28;;;;;;;12.27;9.80;;;;;;;-2.60;100.00;103178.84;5012291;28;20025;-77
2024/01/08 09:35:54;;;;;;;11.40;9.90;;;;;;;-2.68;100.00;103176.88;5012845;28;20030;-78
2024/01/08 09:38:19;;;;;;;12.98;10.63;;;;;;;-2.69;100.00;103177.72;5013005;28;20026;-79
2024/01/08 09:40:47;;;;;;;13.23;10.40;;;;;;;-2.71;100.00;103165.03;5012828;28;20371;-80
2024/01/08 09:43:15;;;;;;;12.25;10.30;;;;;;;-2.65;100.00;103182.91;5012988;28;20128;-78
2024/01/08 09:45:53;;;;;;;12.27;9.90;;;;;;;-2.61;100.00;103183.84;5013382;28;20029;-80
2024/01/08 09:48:19;;;;;;;12.07;9.63;;;;;;;-2.59;100.00;103189.81;4995364;28;20453;-80
2024/01/08 09:50:45;;;;;;;12.85;9.93;;;;;;;-2.53;100.00;103195.06;5013112;28;20029;-81
2024/01/08 09:53:11;;;;;;;13.07;10.18;;;;;;;-2.44;100.00;103192.78;5013134;28;20087;-78
2024/01/08 09:55:36;;;;;;;12.50;10.27;;;;;;;-2.32;100.00;103197.34;5012854;28;20087;-77
2024/01/08 09:58:03;;;;;;;10.27;8.73;;;;;;;-2.27;100.00;103190.72;5012788;28;20528;-78
2024/01/08 10:00:29;;;;;;;10.75;8.45;;;;;;;-2.34;100.00;103179.59;5011733;28;20060;-76
2024/01/08 10:02:56;;;;;;;9.73;8.07;;;;;;;-2.17;100.00;103205.34;5013636;28;20378;-75
2024/01/08 10:05:22;;;;;;;10.73;8.32;;;;;;;-2.20;100.00;103202.72;5013200;28;20033;-72
2024/01/08 10:07:47;;;;;;;12.90;8.98;;;;;;;-2.18;100.00;103190.97;5012656;28;20026;-73
2024/01/08 10:10:12;;;;;;;11.15;8.35;;;;;;;-2.27;100.00;103198.31;5012670;28;20018;-76
2024/01/08 10:12:38;;;;;;;10.98;8.23;;;;;;;-2.23;100.00;103194.22;5012789;28;20126;-75
2024/01/08 10:15:04;;;;;;;10.55;8.43;;;;;;;-2.31;100.00;103194.00;5012624;28;20046;-76
2024/01/08 10:17:30;;;;;;;10.98;8.68;;;;;;;-2.33;100.00;103188.88;5012474;28;20018;-77
2024/01/08 10:20:09;;;;;;;10.30;8.90;;;;;;;-2.29;100.00;103199.94;5012793;28;20037;-75
2024/01/08 10:22:34;;;;;;;11.00;9.10;;;;;;;-2.32;100.00;103200.72;5012481;28;20033;-76
2024/01/08 10:25:03;;;;;;;13.32;9.85;;;;;;;-2.42;100.00;103186.09;5011611;28;20034;-75
2024/01/08 10:27:29;;;;;;;12.18;9.60;;;;;;;-2.50;100.00;103179.09;5012924;28;20072;-76
2024/01/08 10:29:55;;;;;;;12.32;9.43;;;;;;;-2.57;100.00;103188.16;5012458;28;20063;-79
2024/01/08 10:32:23;;;;;;;12.88;9.40;;;;;;;-2.59;100.00;103187.28;5012585;28;20030;-81
2024/01/08 10:34:49;;;;;;;12.30;9.93;;;;;;;-2.49;100.00;103174.06;5012444;28;20076;-82
2024/01/08 10:37:15;;;;;;;13.10;9.73;;;;;;;-2.47;100.00;103161.47;5012494;28;20026;-82
2024/01/08 10:39:42;;;;;;;11.35;8.90;;;;;;;-2.39;100.00;103175.19;5012585;28;20029;-82
2024/01/08 10:42:08;;;;;;;11.25;8.60;;;;;;;-2.36;100.00;103178.69;5010969;28;20040;-75
2024/01/08 10:44:33;;;;;;;11.32;9.15;;;;;;;-2.40;100.00;103168.44;5012687;28;20033;-75
2024/01/08 10:47:08;;;;;;;11.25;8.40;;;;;;;-2.27;100.00;103182.28;5016323;28;20096;-80
2024/01/08 10:49:37;;;;;;;10.80;8.95;;;;;;;-2.17;100.00;103172.44;5016501;28;20034;-75
2024/01/08 10:52:21;;;;;;;10.48;8.10;;;;;;;-2.15;100.00;103150.59;5016402;28;20037;-75
2024/01/08 10:54:54;;;;;;;9.27;7.88;;;;;;;-2.15;100.00;103134.53;5016141;28;20028;-77
2024/01/08 10:57:21;;;;;;;10.18;8.45;;;;;;;-1.99;100.00;103161.94;5016179;28;20029;-77
2024/01/08 10:59:50;;;;;;;11.55;8.05;;;;;;;-2.05;100.00;103144.09;5016346;28;20054;-78
2024/01/08 11:02:16;;;;;;;10.95;8.68;;;;;;;-1.97;100.00;103154.38;5015985;28;20072;-76
2024/01/08 11:04:45;;;;;;;11.43;7.88;;;;;;;-1.95;100.00;103168.81;5016110;28;20018;-76